createdAt,value
2022-08-20T00:00:53.347Z,98825.06
2022-08-20T00:03:32.307Z,98818.25
2022-08-20T00:06:10.014Z,98820.81
2022-08-20T00:08:37.562Z,98826.94
2022-08-20T00:11:07.435Z,98829.09
2022-08-20T00:13:41.340Z,98835.88
2022-08-20T00:16:09.197Z,98840.91
2022-08-20T00:18:39.271Z,98832.50
2022-08-20T00:21:09.033Z,98836.66
2022-08-20T00:23:41.307Z,98828.13
2022-08-20T00:26:10.198Z,98830.34
2022-08-20T00:28:38.267Z,98833.94
2022-08-20T00:31:09.329Z,98842.34
2022-08-20T00:33:37.162Z,98840.81
2022-08-20T00:36:07.101Z,98841.16
2022-08-20T00:38:35.004Z,98825.75
2022-08-20T00:41:02.554Z,98820.03
2022-08-20T00:43:41.191Z,98820.25
2022-08-20T00:46:21.317Z,98808.69
2022-08-20T00:48:51.234Z,98794.47
2022-08-20T00:51:39.066Z,98779.13
2022-08-20T00:54:20.673Z,98769.09
2022-08-20T00:56:52.646Z,98747.72
2022-08-20T00:59:23.089Z,98749.13
2022-08-20T01:01:55.604Z,98741.66
2022-08-20T01:04:24.946Z,98733.00
2022-08-20T01:06:51.975Z,98710.38
2022-08-20T01:09:33.336Z,98708.50
2022-08-20T01:12:07.704Z,98690.63
2022-08-20T01:14:34.624Z,98697.25
2022-08-20T01:17:06.203Z,98705.59
2022-08-20T01:19:43.158Z,98723.31
2022-08-20T01:22:30.646Z,98729.84
2022-08-20T01:25:27.043Z,98713.88
2022-08-20T01:27:56.021Z,98712.34
2022-08-20T01:30:27.295Z,98693.72
2022-08-20T01:32:54.153Z,98678.44
2022-08-20T01:35:22.558Z,98670.13
2022-08-20T01:37:49.353Z,98661.03
2022-08-20T01:40:27.902Z,98655.50
2022-08-20T01:42:59.621Z,98661.91
2022-08-20T01:45:29.217Z,98657.59
2022-08-20T01:47:58.093Z,98664.59
2022-08-20T01:50:28.526Z,98671.38
2022-08-20T01:53:06.568Z,98680.72
2022-08-20T01:55:33.302Z,98681.63
2022-08-20T01:58:01.453Z,98673.25
2022-08-20T02:00:28.571Z,98678.38
2022-08-20T02:02:55.238Z,98677.09
2022-08-20T02:05:22.828Z,98681.84
2022-08-20T02:07:50.405Z,98683.81
2022-08-20T02:10:18.625Z,98678.66
2022-08-20T02:12:45.358Z,98680.88
2022-08-20T02:15:13.335Z,98681.84
2022-08-20T02:17:41.855Z,98673.06
2022-08-20T02:20:20.455Z,98675.97
2022-08-20T02:22:49.271Z,98667.06
2022-08-20T02:25:19.322Z,98682.00
2022-08-20T02:27:48.803Z,98674.34
2022-08-20T02:30:27.510Z,98673.63
2022-08-20T02:32:56.836Z,98671.66
2022-08-20T02:35:25.420Z,98668.25
2022-08-20T02:37:53.191Z,98662.69
2022-08-20T02:40:30.611Z,98668.06
2022-08-20T02:43:02.445Z,98666.28
2022-08-20T02:45:31.597Z,98660.59
2022-08-20T02:47:59.352Z,98662.91
2022-08-20T02:50:26.949Z,98673.06
2022-08-20T02:52:54.047Z,98670.56
2022-08-20T02:55:27.365Z,98679.84
2022-08-20T02:57:57.933Z,98681.13
2022-08-20T03:00:27.512Z,98687.22
2022-08-20T03:02:54.206Z,98690.03
2022-08-20T03:05:20.924Z,98686.97
2022-08-20T03:07:59.881Z,98679.41
2022-08-20T03:10:30.282Z,98674.53
2022-08-20T03:12:56.920Z,98685.69
2022-08-20T03:15:23.997Z,98672.88
2022-08-20T03:17:50.881Z,98685.16
2022-08-20T03:20:17.622Z,98674.41
2022-08-20T03:22:50.500Z,98679.06
2022-08-20T03:25:18.242Z,98676.03
2022-08-20T03:27:45.610Z,98678.72
2022-08-20T03:30:15.247Z,98682.00
2022-08-20T03:32:42.771Z,98684.69
2022-08-20T03:35:13.026Z,98695.66
2022-08-20T03:37:40.446Z,98690.66
2022-08-20T03:40:22.037Z,98688.63
2022-08-20T03:42:48.762Z,98685.84
2022-08-20T03:45:19.903Z,98681.63
2022-08-20T03:47:48.003Z,98700.47
2022-08-20T03:50:22.644Z,98698.22
2022-08-20T03:52:54.127Z,98690.50
2022-08-20T03:55:22.319Z,98697.41
2022-08-20T03:57:55.537Z,98693.31
2022-08-20T04:00:24.209Z,98698.22
2022-08-20T04:02:50.934Z,98694.00
2022-08-20T04:05:17.699Z,98699.50
2022-08-20T04:07:44.841Z,98701.13
2022-08-20T04:10:13.041Z,98700.41
2022-08-20T04:12:48.748Z,98703.25
2022-08-20T04:15:21.238Z,98704.88
2022-08-20T04:17:50.378Z,98712.06
2022-08-20T04:20:23.174Z,98718.03
2022-08-20T04:22:58.622Z,98714.91
2022-08-20T04:25:35.849Z,98705.28
2022-08-20T04:28:05.987Z,98696.28
2022-08-20T04:30:33.402Z,98705.75
2022-08-20T04:33:00.830Z,98697.81
2022-08-20T04:35:28.289Z,98705.28
2022-08-20T04:38:06.746Z,98705.94
2022-08-20T04:40:53.523Z,98719.91
2022-08-20T04:43:23.258Z,98732.78
2022-08-20T04:45:52.019Z,98736.75
2022-08-20T04:48:20.257Z,98740.75
2022-08-20T04:50:47.315Z,98746.09
2022-08-20T04:53:23.954Z,98738.13
2022-08-20T04:55:54.503Z,98722.44
2022-08-20T04:58:33.807Z,98730.97
2022-08-20T05:01:04.224Z,98717.13
2022-08-20T05:03:32.120Z,98726.38
2022-08-20T05:05:59.078Z,98710.31
2022-08-20T05:08:26.526Z,98708.50
2022-08-20T05:10:56.119Z,98707.00
2022-08-20T05:13:33.888Z,98716.91
2022-08-20T05:16:02.010Z,98724.84
2022-08-20T05:18:32.668Z,98732.19
2022-08-20T05:21:05.708Z,98727.66
2022-08-20T05:23:42.819Z,98729.28
2022-08-20T05:26:11.442Z,98733.72
2022-08-20T05:28:53.965Z,98740.50
2022-08-20T05:31:31.977Z,98742.84
2022-08-20T05:34:12.174Z,98749.59
2022-08-20T05:36:41.833Z,98750.09
2022-08-20T05:39:10.062Z,98746.00
2022-08-20T05:41:38.486Z,98756.63
2022-08-20T05:44:05.523Z,98744.13
2022-08-20T05:46:32.372Z,98750.66
2022-08-20T05:49:01.747Z,98756.75
2022-08-20T05:51:29.363Z,98751.00
2022-08-20T05:53:57.955Z,98758.84
2022-08-20T05:56:27.256Z,98744.50
2022-08-20T05:58:54.211Z,98754.72
2022-08-20T06:01:20.950Z,98753.00
2022-08-20T06:04:06.305Z,98770.63
2022-08-20T06:06:44.472Z,98776.34
2022-08-20T06:09:15.195Z,98774.59
2022-08-20T06:11:41.851Z,98783.25
2022-08-20T06:14:08.565Z,98775.44
2022-08-20T06:16:37.081Z,98789.16
2022-08-20T06:19:05.579Z,98781.28
2022-08-20T06:21:32.522Z,98783.34
2022-08-20T06:24:01.671Z,98772.50
2022-08-20T06:26:30.451Z,98770.75
2022-08-20T06:29:05.655Z,98777.44
2022-08-20T06:31:32.729Z,98779.63
2022-08-20T06:33:59.424Z,98771.34
2022-08-20T06:36:27.472Z,98783.25
2022-08-20T06:38:56.160Z,98770.88
2022-08-20T06:41:22.827Z,98763.06
2022-08-20T06:44:02.752Z,98778.25
2022-08-20T06:46:29.545Z,98778.22
2022-08-20T06:48:56.163Z,98775.44
2022-08-20T06:51:23.185Z,98778.38
2022-08-20T06:53:49.921Z,98775.09
2022-08-20T06:56:16.679Z,98780.84
2022-08-20T06:58:43.955Z,98785.19
2022-08-20T07:01:12.515Z,98788.91
2022-08-20T07:03:54.521Z,98794.97
2022-08-20T07:06:25.007Z,98796.66
2022-08-20T07:08:51.838Z,98789.72
2022-08-20T07:11:18.512Z,98793.22
2022-08-20T07:13:45.479Z,98790.78
2022-08-20T07:16:12.452Z,98786.22
2022-08-20T07:18:39.136Z,98795.25
2022-08-20T07:21:06.032Z,98792.19
2022-08-20T07:23:33.207Z,98784.81
2022-08-20T07:26:00.106Z,98799.22
2022-08-20T07:28:32.436Z,98790.78
2022-08-20T07:31:17.936Z,98795.19
2022-08-20T07:33:47.264Z,98792.50
2022-08-20T07:36:17.696Z,98797.06
2022-08-20T07:38:50.876Z,98798.78
2022-08-20T07:41:17.486Z,98808.00
2022-08-20T07:43:45.771Z,98810.31
2022-08-20T07:46:20.812Z,98816.34
2022-08-20T07:48:50.212Z,98815.22
2022-08-20T07:51:22.381Z,98811.28
2022-08-20T07:53:51.699Z,98820.28
2022-08-20T07:56:24.388Z,98817.47
2022-08-20T07:58:55.240Z,98810.91
2022-08-20T08:01:30.382Z,98814.75
2022-08-20T08:03:59.457Z,98802.53
2022-08-20T08:06:29.486Z,98797.34
2022-08-20T08:09:01.088Z,98802.00
2022-08-20T08:11:27.864Z,98794.78
2022-08-20T08:13:54.658Z,98795.16
2022-08-20T08:16:21.903Z,98786.75
2022-08-20T08:18:52.171Z,98796.09
2022-08-20T08:21:19.415Z,98788.38
2022-08-20T08:23:46.089Z,98798.97
2022-08-20T08:26:16.344Z,98797.84
2022-08-20T08:28:46.233Z,98802.34
2022-08-20T08:31:14.374Z,98804.66
2022-08-20T08:33:41.862Z,98794.16
2022-08-20T08:36:12.431Z,98797.69
2022-08-20T08:38:42.891Z,98800.56
2022-08-20T08:41:21.848Z,98805.59
2022-08-20T08:43:53.224Z,98785.78
2022-08-20T08:46:26.099Z,98778.94
2022-08-20T08:48:56.488Z,98772.50
2022-08-20T08:51:56.691Z,98782.06
2022-08-20T08:54:27.485Z,98783.97
2022-08-20T08:56:54.687Z,98778.50
2022-08-20T08:59:23.152Z,98778.31
2022-08-20T09:01:57.261Z,98783.94
2022-08-20T09:04:36.110Z,98766.22
2022-08-20T09:07:07.027Z,98777.94
2022-08-20T09:09:41.522Z,98776.59
2022-08-20T09:12:14.131Z,98790.34
2022-08-20T09:14:41.295Z,98759.94
2022-08-20T09:17:07.979Z,98770.66
2022-08-20T09:19:34.619Z,98775.72
2022-08-20T09:22:08.712Z,98779.34
2022-08-20T09:24:35.502Z,98777.81
2022-08-20T09:27:02.180Z,98779.56
2022-08-20T09:29:29.467Z,98784.31
2022-08-20T09:32:10.422Z,98770.06
2022-08-20T09:34:42.807Z,98762.72
2022-08-20T09:37:09.905Z,98774.84
2022-08-20T09:39:36.841Z,98779.22
2022-08-20T09:42:13.496Z,98769.44
2022-08-20T09:44:40.701Z,98775.31
2022-08-20T09:47:07.732Z,98770.31
2022-08-20T09:49:34.617Z,98778.25
2022-08-20T09:52:01.630Z,98771.19
2022-08-20T09:54:30.180Z,98774.78
2022-08-20T09:57:06.637Z,98780.47
2022-08-20T09:59:35.130Z,98775.28
2022-08-20T10:02:02.071Z,98758.19
2022-08-20T10:04:28.875Z,98763.88
2022-08-20T10:06:56.558Z,98760.47
2022-08-20T10:09:23.468Z,98764.28
2022-08-20T10:11:51.482Z,98763.03
2022-08-20T10:14:18.119Z,98757.47
2022-08-20T10:16:44.818Z,98761.03
2022-08-20T10:19:11.513Z,98758.97
2022-08-20T10:21:39.244Z,98757.09
2022-08-20T10:24:06.314Z,98750.63
2022-08-20T10:26:33.063Z,98750.09
2022-08-20T10:28:59.738Z,98757.09
2022-08-20T10:31:26.470Z,98751.72
2022-08-20T10:33:53.142Z,98729.03
2022-08-20T10:36:20.076Z,98739.19
2022-08-20T10:38:48.533Z,98734.31
2022-08-20T10:41:15.314Z,98736.50
2022-08-20T10:43:41.987Z,98736.78
2022-08-20T10:46:09.403Z,98740.72
2022-08-20T10:48:36.130Z,98749.72
2022-08-20T10:51:02.908Z,98724.03
2022-08-20T10:53:29.704Z,98729.84
2022-08-20T10:55:57.888Z,98730.44
2022-08-20T10:58:26.069Z,98729.44
2022-08-20T11:01:02.321Z,98738.22
2022-08-20T11:03:29.065Z,98738.13
2022-08-20T11:05:55.740Z,98735.44
2022-08-20T11:08:33.758Z,98740.25
2022-08-20T11:11:01.269Z,98739.59
2022-08-20T11:13:27.926Z,98747.94
2022-08-20T11:15:54.608Z,98739.72
2022-08-20T11:18:21.390Z,98747.69
2022-08-20T11:20:48.040Z,98745.00
2022-08-20T11:23:14.766Z,98738.81
2022-08-20T11:25:41.383Z,98751.81
2022-08-20T11:28:08.118Z,98732.06
2022-08-20T11:30:36.794Z,98731.59
2022-08-20T11:33:04.300Z,98736.34
2022-08-20T11:35:50.138Z,98744.19
2022-08-20T11:38:18.333Z,98753.09
2022-08-20T11:40:46.873Z,98744.59
2022-08-20T11:43:16.205Z,98734.31
2022-08-20T11:45:49.678Z,98754.16
2022-08-20T11:48:16.965Z,98755.47
2022-08-20T11:50:43.667Z,98745.72
2022-08-20T11:53:10.371Z,98747.88
2022-08-20T11:55:38.705Z,98747.91
2022-08-20T11:58:06.220Z,98745.97
2022-08-20T12:00:34.088Z,98757.16
2022-08-20T12:03:02.183Z,98758.19
2022-08-20T12:05:32.203Z,98758.50
2022-08-20T12:08:01.368Z,98766.03
2022-08-20T12:10:29.291Z,98774.97
2022-08-20T12:12:56.782Z,98776.00
2022-08-20T12:15:25.311Z,98771.69
2022-08-20T12:17:52.370Z,98773.38
2022-08-20T12:20:19.472Z,98777.16
2022-08-20T12:22:46.171Z,98773.88
2022-08-20T12:25:13.377Z,98785.00
2022-08-20T12:27:41.490Z,98781.31
2022-08-20T12:30:14.245Z,98779.28
2022-08-20T12:32:42.297Z,98774.00
2022-08-20T12:35:11.329Z,98770.91
2022-08-20T12:37:38.386Z,98775.56
2022-08-20T12:40:08.818Z,98781.78
2022-08-20T12:42:35.930Z,98771.81
2022-08-20T12:45:04.226Z,98778.50
2022-08-20T12:47:37.264Z,98786.38
2022-08-20T12:50:05.905Z,98776.19
2022-08-20T12:52:33.543Z,98768.88
2022-08-20T12:55:00.843Z,98762.25
2022-08-20T12:57:35.579Z,98755.66
2022-08-20T13:00:08.618Z,98760.41
2022-08-20T13:02:35.225Z,98765.22
2022-08-20T13:05:04.931Z,98754.38
2022-08-20T13:07:32.814Z,98758.41
2022-08-20T13:10:00.451Z,98765.78
2022-08-20T13:12:27.627Z,98758.69
2022-08-20T13:14:54.346Z,98748.44
2022-08-20T13:17:33.659Z,98749.56
2022-08-20T13:20:08.787Z,98745.56
2022-08-20T13:22:36.067Z,98738.69
2022-08-20T13:25:03.246Z,98739.47
2022-08-20T13:27:29.964Z,98735.19
2022-08-20T13:29:58.927Z,98735.06
2022-08-20T13:32:26.320Z,98745.47
2022-08-20T13:34:53.150Z,98741.94
2022-08-20T13:37:25.558Z,98756.28
2022-08-20T13:39:53.530Z,98748.88
2022-08-20T13:42:20.368Z,98739.28
2022-08-20T13:44:48.088Z,98745.22
2022-08-20T13:47:20.996Z,98740.41
2022-08-20T13:49:49.115Z,98745.88
2022-08-20T13:52:16.992Z,98744.81
2022-08-20T13:54:43.867Z,98755.59
2022-08-20T13:57:14.933Z,98757.84
2022-08-20T13:59:48.312Z,98752.56
2022-08-20T14:02:16.008Z,98752.25
2022-08-20T14:04:42.799Z,98757.41
2022-08-20T14:07:27.723Z,98763.78
2022-08-20T14:10:03.642Z,98767.75
2022-08-20T14:12:30.860Z,98772.81
2022-08-20T14:14:58.252Z,98771.94
2022-08-20T14:17:37.113Z,98775.06
2022-08-20T14:20:10.810Z,98775.69
2022-08-20T14:22:37.764Z,98781.47
2022-08-20T14:25:09.284Z,98773.91
2022-08-20T14:27:36.230Z,98772.19
2022-08-20T14:30:06.408Z,98769.50
2022-08-20T14:32:33.070Z,98776.00
2022-08-20T14:35:00.559Z,98791.94
2022-08-20T14:37:32.944Z,98784.69
2022-08-20T14:40:01.716Z,98786.28
2022-08-20T14:42:29.578Z,98784.66
2022-08-20T14:44:57.385Z,98785.91
2022-08-20T14:47:30.342Z,98784.25
2022-08-20T14:50:02.728Z,98796.09
2022-08-20T14:52:33.819Z,98790.06
2022-08-20T14:55:00.521Z,98789.09
2022-08-20T14:57:27.715Z,98788.66
2022-08-20T14:59:54.467Z,98794.03
2022-08-20T15:02:22.273Z,98796.34
2022-08-20T15:04:53.915Z,98798.16
2022-08-20T15:07:33.743Z,98806.75
2022-08-20T15:10:02.265Z,98807.53
2022-08-20T15:12:29.329Z,98800.47
2022-08-20T15:14:56.137Z,98812.00
2022-08-20T15:17:29.336Z,98812.69
2022-08-20T15:19:56.469Z,98805.03
2022-08-20T15:22:25.731Z,98806.38
2022-08-20T15:24:57.614Z,98813.88
2022-08-20T15:27:26.023Z,98809.19
2022-08-20T15:29:53.585Z,98793.22
2022-08-20T15:32:21.687Z,98806.69
2022-08-20T15:34:49.062Z,98807.59
2022-08-20T15:37:21.790Z,98802.94
2022-08-20T15:39:49.759Z,98798.72
2022-08-20T15:42:17.639Z,98791.59
2022-08-20T15:44:45.632Z,98795.97
2022-08-20T15:47:12.269Z,98797.34
2022-08-20T15:49:39.063Z,98813.06
2022-08-20T15:52:05.866Z,98808.75
2022-08-20T15:54:32.632Z,98815.03
2022-08-20T15:57:02.550Z,98805.22
2022-08-20T15:59:44.226Z,98813.66
2022-08-20T16:02:35.690Z,98802.53
2022-08-20T16:05:18.362Z,98810.59
2022-08-20T16:07:58.616Z,98808.97
2022-08-20T16:10:37.043Z,98812.13
2022-08-20T16:13:09.964Z,98809.81
2022-08-20T16:15:45.214Z,98810.53
2022-08-20T16:18:21.957Z,98813.22
2022-08-20T16:20:51.594Z,98826.91
2022-08-20T16:23:22.666Z,98819.16
2022-08-20T16:26:04.582Z,98817.66
2022-08-20T16:29:06.466Z,98812.16
2022-08-20T16:31:49.628Z,98813.56
2022-08-20T16:34:32.911Z,98806.91
2022-08-20T16:37:10.258Z,98814.28
2022-08-20T16:40:09.938Z,98809.09
2022-08-20T16:42:40.228Z,98824.41
2022-08-20T16:45:21.970Z,98820.22
2022-08-20T16:47:50.808Z,98815.53
2022-08-20T16:50:23.541Z,98824.28
2022-08-20T16:52:54.305Z,98828.22
2022-08-20T16:55:23.819Z,98833.16
2022-08-20T16:57:52.922Z,98838.41
2022-08-20T17:00:35.671Z,98828.00
2022-08-20T17:03:31.432Z,98832.19
2022-08-20T17:06:36.915Z,98842.91
2022-08-20T17:09:21.519Z,98853.56
2022-08-20T17:11:48.347Z,98836.16
2022-08-20T17:14:17.745Z,98838.16
2022-08-20T17:16:47.519Z,98835.09
2022-08-20T17:19:40.515Z,98837.69
2022-08-20T17:22:10.240Z,98855.53
2022-08-20T17:24:37.977Z,98841.44
2022-08-20T17:27:10.239Z,98842.72
2022-08-20T17:29:51.226Z,98838.41
2022-08-20T17:32:26.876Z,98837.44
2022-08-20T17:34:57.275Z,98850.97
2022-08-20T17:37:33.521Z,98855.06
2022-08-20T17:40:15.194Z,98849.81
2022-08-20T17:42:52.763Z,98861.72
2022-08-20T17:45:26.122Z,98857.16
2022-08-20T17:47:53.733Z,98851.94
2022-08-20T17:50:25.619Z,98852.13
2022-08-20T17:53:01.025Z,98852.22
2022-08-20T17:55:31.302Z,98844.31
2022-08-20T17:58:02.765Z,98855.63
2022-08-20T18:00:29.660Z,98854.63
2022-08-20T18:03:21.623Z,98854.13
2022-08-20T18:06:03.765Z,98848.81
2022-08-20T18:08:39.647Z,98860.53
2022-08-20T18:11:12.314Z,98868.34
2022-08-20T18:13:54.162Z,98858.03
2022-08-20T18:16:28.880Z,98865.25
2022-08-20T18:19:21.305Z,98876.28
2022-08-20T18:22:11.835Z,98876.38
2022-08-20T18:24:58.557Z,98878.78
2022-08-20T18:27:37.687Z,98879.75
2022-08-20T18:30:13.173Z,98883.31
2022-08-20T18:32:39.963Z,98884.44
2022-08-20T18:35:35.842Z,98888.25
2022-08-20T18:38:21.345Z,98887.22
2022-08-20T18:40:50.047Z,98907.63
2022-08-20T18:43:30.240Z,98904.28
2022-08-20T18:46:22.048Z,98896.13
2022-08-20T18:49:08.571Z,98897.03
2022-08-20T18:51:50.621Z,98911.16
2022-08-20T18:54:36.284Z,98895.16
2022-08-20T18:57:17.486Z,98897.66
2022-08-20T18:59:50.761Z,98902.13
2022-08-20T19:02:25.250Z,98902.56
2022-08-20T19:05:02.716Z,98901.41
2022-08-20T19:07:48.493Z,98914.97
2022-08-20T19:10:41.367Z,98913.84
2022-08-20T19:13:16.083Z,98913.47
2022-08-20T19:15:50.819Z,98929.59
2022-08-20T19:18:32.580Z,98918.09
2022-08-20T19:21:02.330Z,98919.66
2022-08-20T19:23:33.230Z,98931.97
2022-08-20T19:26:27.834Z,98925.84
2022-08-20T19:29:02.795Z,98932.44
2022-08-20T19:31:32.567Z,98927.94
2022-08-20T19:34:19.781Z,98927.63
2022-08-20T19:37:08.971Z,98941.09
2022-08-20T19:39:47.713Z,98928.16
2022-08-20T19:42:20.489Z,98927.34
2022-08-20T19:45:07.791Z,98932.44
2022-08-20T19:47:49.323Z,98920.75
2022-08-20T19:50:26.462Z,98929.84
2022-08-20T19:53:02.410Z,98919.59
2022-08-20T19:55:32.695Z,98922.09
2022-08-20T19:58:02.679Z,98930.22
2022-08-20T20:00:39.003Z,98917.09
2022-08-20T20:03:15.945Z,98920.13
2022-08-20T20:06:15.213Z,98922.41
2022-08-20T20:08:44.890Z,98913.22
2022-08-20T20:11:19.035Z,98918.66
2022-08-20T20:13:46.418Z,98912.13
2022-08-20T20:16:17.934Z,98921.34
2022-08-20T20:18:45.109Z,98922.47
2022-08-20T20:21:25.667Z,98920.69
2022-08-20T20:23:56.488Z,98914.78
2022-08-20T20:26:24.560Z,98913.09
2022-08-20T20:29:02.428Z,98920.16
2022-08-20T20:31:32.346Z,98931.28
2022-08-20T20:34:06.449Z,98919.59
2022-08-20T20:36:38.317Z,98915.53
2022-08-20T20:39:12.552Z,98913.94
2022-08-20T20:41:53.042Z,98910.97
2022-08-20T20:44:37.260Z,98907.88
2022-08-20T20:47:07.896Z,98906.94
2022-08-20T20:49:55.257Z,98915.78
2022-08-20T20:52:25.249Z,98912.75
2022-08-20T20:55:03.903Z,98916.94
2022-08-20T20:57:38.411Z,98925.09
2022-08-20T21:00:17.474Z,98922.28
2022-08-20T21:02:45.367Z,98930.59
2022-08-20T21:05:14.653Z,98932.22
2022-08-20T21:07:45.464Z,98944.47
2022-08-20T21:10:20.402Z,98930.06
2022-08-20T21:12:52.469Z,98939.09
2022-08-20T21:15:20.984Z,98937.63
2022-08-20T21:17:47.990Z,98924.03
2022-08-20T21:20:14.979Z,98906.72
2022-08-20T21:22:41.694Z,98921.06
2022-08-20T21:25:08.625Z,98927.69
2022-08-20T21:27:35.849Z,98919.28
2022-08-20T21:30:04.649Z,98922.38
2022-08-20T21:32:31.340Z,98917.63
2022-08-20T21:34:58.000Z,98932.72
2022-08-20T21:37:24.684Z,98913.75
2022-08-20T21:39:51.423Z,98917.06
2022-08-20T21:42:28.609Z,98923.81
2022-08-20T21:44:57.126Z,98917.88
2022-08-20T21:47:24.071Z,98920.72
2022-08-20T21:49:50.788Z,98932.78
2022-08-20T21:52:17.520Z,98924.59
2022-08-20T21:54:44.423Z,98921.47
2022-08-20T21:57:21.165Z,98931.44
2022-08-20T21:59:49.587Z,98909.84
2022-08-20T22:02:17.603Z,98917.88
2022-08-20T22:04:44.369Z,98910.84
2022-08-20T22:07:12.024Z,98915.00
2022-08-20T22:09:38.972Z,98909.22
2022-08-20T22:12:13.318Z,98909.41
2022-08-20T22:14:40.090Z,98908.00
2022-08-20T22:17:06.790Z,98893.16
2022-08-20T22:19:33.711Z,98892.53
2022-08-20T22:22:00.354Z,98888.59
2022-08-20T22:24:29.164Z,98887.47
2022-08-20T22:26:56.017Z,98876.53
2022-08-20T22:29:23.148Z,98854.88
2022-08-20T22:31:49.846Z,98870.97
2022-08-20T22:34:19.389Z,98867.06
2022-08-20T22:36:46.529Z,98878.38
2022-08-20T22:39:13.782Z,98837.63
2022-08-20T22:41:40.794Z,98848.13
2022-08-20T22:44:07.610Z,98846.22
2022-08-20T22:46:38.165Z,98845.44
2022-08-20T22:49:09.268Z,98835.53
2022-08-20T22:51:38.696Z,98837.38
2022-08-20T22:54:08.987Z,98838.94
2022-08-20T22:56:35.732Z,98830.63
2022-08-20T22:59:03.270Z,98831.59
2022-08-20T23:01:30.392Z,98831.06
2022-08-20T23:04:02.964Z,98829.03
2022-08-20T23:06:31.369Z,98843.75
2022-08-20T23:08:58.168Z,98833.84
2022-08-20T23:11:25.973Z,98845.09
2022-08-20T23:13:52.629Z,98844.13
2022-08-20T23:16:19.341Z,98823.19
2022-08-20T23:18:46.013Z,98850.47
2022-08-20T23:21:12.730Z,98844.94
2022-08-20T23:23:39.463Z,98835.50
2022-08-20T23:26:06.842Z,98842.72
2022-08-20T23:28:33.829Z,98854.94
2022-08-20T23:31:00.616Z,98840.13
2022-08-20T23:33:27.260Z,98826.38
2022-08-20T23:35:54.022Z,98848.34
2022-08-20T23:38:21.090Z,98851.31
2022-08-20T23:40:47.819Z,98846.78
2022-08-20T23:43:14.460Z,98853.06
2022-08-20T23:45:41.939Z,98852.47
2022-08-20T23:48:09.122Z,98844.22
2022-08-20T23:50:37.117Z,98853.69
2022-08-20T23:53:04.208Z,98850.38
2022-08-20T23:55:31.255Z,98838.53
2022-08-20T23:57:58.015Z,98855.59
